Time;durP1;ratioP1;P1;durP2;ratioP2;P2;SDS_P1;SDS_P2;PMS_P1;PMS_P2;Temp;Humidity;BMP_temperature;BMP_pressure;BME280_temperature;BME280_humidity;BME280_pressure;Samples;Min_cycle;Max_cycle;Signal;HPM_P1;HPM_P2
2023/12/15 00:01:36;;;;;;;21.57;11.53;;;4.70;99.90;;;;;;4906355;29;20246;-76
2023/12/15 00:04:02;;;;;;;19.27;11.90;;;4.80;99.90;;;;;;4915497;29;20517;-75
2023/12/15 00:06:28;;;;;;;19.80;11.40;;;4.80;99.90;;;;;;4919188;29;20637;-75
2023/12/15 00:08:54;;;;;;;18.83;13.37;;;4.90;99.90;;;;;;4930795;29;20199;-75
2023/12/15 00:11:20;;;;;;;16.47;11.00;;;4.90;99.90;;;;;;4918528;29;20229;-76
2023/12/15 00:13:45;;;;;;;16.00;11.93;;;5.00;99.90;;;;;;4921549;29;20443;-76
2023/12/15 00:16:11;;;;;;;15.80;10.07;;;5.00;99.90;;;;;;4915989;29;20210;-75
2023/12/15 00:18:37;;;;;;;16.17;10.70;;;5.10;99.90;;;;;;4917591;29;20217;-78
2023/12/15 00:21:02;;;;;;;15.77;10.97;;;5.10;99.90;;;;;;4916859;29;20246;-75
2023/12/15 00:23:28;;;;;;;19.10;13.50;;;5.10;99.90;;;;;;4914263;29;20282;-77
2023/12/15 00:25:54;;;;;;;20.70;14.83;;;5.10;99.90;;;;;;4915509;29;20506;-75
2023/12/15 00:28:19;;;;;;;18.60;13.17;;;5.10;99.90;;;;;;4917757;29;20203;-76
2023/12/15 00:30:45;;;;;;;15.57;10.70;;;5.20;99.90;;;;;;4916844;29;20226;-77
2023/12/15 00:33:11;;;;;;;23.50;12.40;;;5.20;99.90;;;;;;4913913;29;20187;-75
2023/12/15 00:35:36;;;;;;;21.13;13.27;;;5.20;99.90;;;;;;4920333;29;20218;-75
2023/12/15 00:38:02;;;;;;;19.50;11.50;;;5.20;99.90;;;;;;4918348;29;20182;-76
2023/12/15 00:40:28;;;;;;;17.60;11.43;;;5.20;99.90;;;;;;4918118;29;20278;-77
2023/12/15 00:42:53;;;;;;;16.10;11.00;;;5.20;99.90;;;;;;4919333;29;20190;-74
2023/12/15 00:45:19;;;;;;;15.70;10.73;;;5.20;99.90;;;;;;4921332;29;20242;-73
2023/12/15 00:47:45;;;;;;;18.33;11.67;;;5.20;99.90;;;;;;4917280;29;20210;-74
2023/12/15 00:50:11;;;;;;;14.73;11.03;;;5.20;99.90;;;;;;4919930;29;20214;-75
2023/12/15 00:52:37;;;;;;;18.87;12.33;;;5.20;99.90;;;;;;4913389;29;20187;-74
2023/12/15 00:55:03;;;;;;;18.67;12.40;;;5.20;99.90;;;;;;4896142;29;20450;-75
2023/12/15 00:57:29;;;;;;;19.27;12.67;;;5.20;99.90;;;;;;4906990;29;20199;-73
2023/12/15 00:59:55;;;;;;;17.13;11.33;;;5.30;99.90;;;;;;4912424;29;20443;-74
2023/12/15 01:02:21;;;;;;;17.73;11.93;;;5.20;99.90;;;;;;4916656;29;20699;-73
2023/12/15 01:04:46;;;;;;;18.70;11.33;;;5.30;99.90;;;;;;4916883;29;20528;-74
2023/12/15 01:07:12;;;;;;;15.27;9.90;;;5.30;99.90;;;;;;4907877;29;20237;-73
2023/12/15 01:09:38;;;;;;;16.83;11.27;;;5.30;99.90;;;;;;4911948;29;20354;-75
2023/12/15 01:12:04;;;;;;;19.60;12.80;;;5.30;99.90;;;;;;4908390;29;20195;-74
2023/12/15 01:14:30;;;;;;;20.87;12.33;;;5.30;99.90;;;;;;4906866;29;20267;-74
2023/12/15 01:16:55;;;;;;;19.50;12.50;;;5.30;99.90;;;;;;4912388;29;20454;-75
2023/12/15 01:19:21;;;;;;;20.10;13.67;;;5.30;99.90;;;;;;4907815;29;20199;-75
2023/12/15 01:21:46;;;;;;;19.83;12.73;;;5.30;99.90;;;;;;4922424;29;20206;-74
2023/12/15 01:24:12;;;;;;;19.70;11.83;;;5.30;99.90;;;;;;4907930;29;20189;-74
2023/12/15 01:26:38;;;;;;;18.77;12.70;;;5.30;99.90;;;;;;4918108;29;20407;-76
2023/12/15 01:29:04;;;;;;;19.47;12.83;;;5.30;99.90;;;;;;4918522;29;20497;-74
2023/12/15 01:31:31;;;;;;;17.40;12.70;;;5.30;99.90;;;;;;4910578;29;20191;-74
2023/12/15 01:33:56;;;;;;;19.97;12.70;;;5.30;99.90;;;;;;4912248;29;20202;-73
2023/12/15 01:36:22;;;;;;;20.53;12.90;;;5.40;99.90;;;;;;4913095;29;20431;-73
2023/12/15 01:38:48;;;;;;;18.57;12.13;;;5.40;99.90;;;;;;4908017;29;20611;-75
2023/12/15 01:41:13;;;;;;;19.03;11.80;;;5.40;99.90;;;;;;4910097;29;20426;-74
2023/12/15 01:43:39;;;;;;;19.90;12.13;;;5.40;99.90;;;;;;4906758;29;20196;-74
2023/12/15 01:46:05;;;;;;;14.30;10.20;;;5.40;99.90;;;;;;4911535;29;20356;-74
2023/12/15 01:48:31;;;;;;;17.30;11.53;;;5.40;99.90;;;;;;4908484;29;20242;-74
2023/12/15 01:50:56;;;;;;;18.43;13.90;;;5.50;99.90;;;;;;4909946;29;20294;-74
2023/12/15 01:53:22;;;;;;;25.03;13.27;;;5.50;99.90;;;;;;4911610;29;20506;-73
2023/12/15 01:55:48;;;;;;;19.93;12.30;;;5.50;99.90;;;;;;4908378;29;20199;-74
2023/12/15 01:58:14;;;;;;;17.00;10.93;;;5.50;99.90;;;;;;4913280;29;20301;-74
2023/12/15 02:00:40;;;;;;;17.97;12.10;;;5.50;99.90;;;;;;4907408;29;20217;-74
2023/12/15 02:03:06;;;;;;;17.53;12.33;;;5.50;99.90;;;;;;4915146;29;20456;-73
2023/12/15 02:05:31;;;;;;;16.83;11.27;;;5.50;99.90;;;;;;4906690;29;20208;-72
2023/12/15 02:07:58;;;;;;;19.40;12.00;;;5.50;99.90;;;;;;4914878;29;20218;-74
2023/12/15 02:10:24;;;;;;;18.33;12.00;;;5.50;99.90;;;;;;4907651;29;20237;-75
2023/12/15 02:12:50;;;;;;;18.53;11.63;;;5.50;99.90;;;;;;4905609;29;20459;-74
2023/12/15 02:15:15;;;;;;;15.07;9.83;;;5.50;99.90;;;;;;4912038;29;20218;-74
2023/12/15 02:17:41;;;;;;;17.70;12.03;;;5.60;99.90;;;;;;4915186;29;20187;-73
2023/12/15 02:20:07;;;;;;;17.60;11.50;;;5.60;99.90;;;;;;4912261;29;20186;-75
2023/12/15 02:22:33;;;;;;;18.20;12.03;;;5.60;99.90;;;;;;4909941;29;20435;-74
2023/12/15 02:24:58;;;;;;;23.77;13.70;;;5.60;99.90;;;;;;4917070;29;20442;-73
2023/12/15 02:27:24;;;;;;;22.73;13.93;;;5.60;99.90;;;;;;4915500;29;20198;-73
2023/12/15 02:29:50;;;;;;;21.57;13.43;;;5.60;99.90;;;;;;4914858;29;20261;-73
2023/12/15 02:32:15;;;;;;;19.07;11.13;;;5.60;99.90;;;;;;4919107;29;20270;-74
2023/12/15 02:34:41;;;;;;;15.30;11.27;;;5.60;99.90;;;;;;4914271;29;20190;-73
2023/12/15 02:37:07;;;;;;;20.50;12.30;;;5.60;99.90;;;;;;4917592;29;20183;-74
2023/12/15 02:39:32;;;;;;;16.60;12.00;;;5.60;99.90;;;;;;4908363;29;20262;-75
2023/12/15 02:41:58;;;;;;;16.80;11.13;;;5.60;99.90;;;;;;4916751;29;20178;-74
2023/12/15 02:44:23;;;;;;;15.73;10.40;;;5.60;99.90;;;;;;4919008;29;20271;-75
2023/12/15 02:46:49;;;;;;;15.77;10.90;;;5.60;99.90;;;;;;4913449;29;20527;-73
2023/12/15 02:49:15;;;;;;;16.80;10.23;;;5.60;99.90;;;;;;4910569;29;20215;-74
2023/12/15 02:51:40;;;;;;;19.60;12.30;;;5.60;99.90;;;;;;4908098;29;20430;-74
2023/12/15 02:54:06;;;;;;;19.50;11.63;;;5.60;99.90;;;;;;4909978;29;20202;-74
2023/12/15 02:56:32;;;;;;;18.00;10.80;;;5.70;99.90;;;;;;4907082;29;20629;-74
2023/12/15 02:58:57;;;;;;;14.93;11.07;;;5.60;99.90;;;;;;4900947;29;20197;-73
2023/12/15 03:01:23;;;;;;;16.67;11.07;;;5.60;99.90;;;;;;4906437;29;20218;-74
2023/12/15 03:03:49;;;;;;;21.80;13.27;;;5.70;99.90;;;;;;4914983;29;20206;-74
2023/12/15 03:06:14;;;;;;;20.73;12.97;;;5.70;99.90;;;;;;4911378;29;20217;-75
2023/12/15 03:08:40;;;;;;;18.30;12.07;;;5.70;99.90;;;;;;4907926;29;20237;-74
2023/12/15 03:11:06;;;;;;;17.20;11.23;;;5.70;99.90;;;;;;4909860;29;20217;-74
2023/12/15 03:13:32;;;;;;;18.47;12.53;;;5.70;99.90;;;;;;4918644;29;20182;-74
2023/12/15 03:16:03;;;;;;;16.80;11.70;;;5.70;99.90;;;;;;4910616;29;20447;-74
2023/12/15 03:18:28;;;;;;;17.23;11.83;;;5.70;99.90;;;;;;4915278;29;20206;-74
2023/12/15 03:20:54;;;;;;;21.17;12.43;;;5.80;99.90;;;;;;4891971;29;20428;-74
2023/12/15 03:23:19;;;;;;;18.73;12.60;;;5.80;99.90;;;;;;4912005;29;20646;-73
2023/12/15 03:25:45;;;;;;;18.50;12.30;;;5.70;99.90;;;;;;4916051;29;20476;-73
2023/12/15 03:28:11;;;;;;;19.83;12.50;;;5.80;99.90;;;;;;4915423;29;20202;-73
2023/12/15 03:30:36;;;;;;;19.10;12.90;;;5.70;99.90;;;;;;4913845;29;20217;-73
2023/12/15 03:33:02;;;;;;;19.03;11.90;;;5.70;99.90;;;;;;4912448;29;20198;-74
2023/12/15 03:35:27;;;;;;;16.40;10.83;;;5.70;99.90;;;;;;4910600;29;20211;-74
2023/12/15 03:37:53;;;;;;;17.73;10.83;;;5.70;99.90;;;;;;4907169;29;20188;-74
2023/12/15 03:40:19;;;;;;;16.03;10.60;;;5.70;99.90;;;;;;4911153;29;20187;-73
2023/12/15 03:42:46;;;;;;;15.37;10.47;;;5.70;99.90;;;;;;4917649;29;20586;-74
2023/12/15 03:45:12;;;;;;;13.10;8.83;;;5.70;99.90;;;;;;4911275;29;20230;-74
2023/12/15 03:47:38;;;;;;;14.40;9.53;;;5.70;99.90;;;;;;4911556;29;20431;-74
2023/12/15 03:50:04;;;;;;;12.23;8.60;;;5.70;99.90;;;;;;4909199;29;20480;-74
2023/12/15 03:52:30;;;;;;;14.93;10.00;;;5.70;99.90;;;;;;4905886;29;20212;-73
2023/12/15 03:54:56;;;;;;;12.00;9.10;;;5.70;99.90;;;;;;4908075;29;20522;-74
2023/12/15 03:57:22;;;;;;;14.50;10.27;;;5.70;99.90;;;;;;4903578;29;20404;-74
2023/12/15 03:59:48;;;;;;;16.10;11.20;;;5.70;99.90;;;;;;4903264;29;20701;-74
2023/12/15 04:02:15;;;;;;;21.90;10.03;;;5.70;99.90;;;;;;4907227;29;20555;-73
2023/12/15 04:04:44;;;;;;;16.13;10.53;;;5.80;99.90;;;;;;4911576;29;20476;-74
2023/12/15 04:07:09;;;;;;;20.23;10.40;;;5.80;99.90;;;;;;4904095;29;20530;-73
2023/12/15 04:09:35;;;;;;;14.30;9.53;;;5.80;99.90;;;;;;4909297;29;20755;-74
2023/12/15 04:12:01;;;;;;;18.37;9.50;;;5.80;99.90;;;;;;4916879;29;20189;-74
2023/12/15 04:14:27;;;;;;;15.77;9.40;;;5.80;99.90;;;;;;4913424;29;20450;-74
2023/12/15 04:16:52;;;;;;;15.13;9.43;;;5.80;99.90;;;;;;4912861;29;20338;-74
2023/12/15 04:19:18;;;;;;;15.60;8.90;;;5.80;99.90;;;;;;4914961;29;20205;-74
2023/12/15 04:21:44;;;;;;;11.73;8.90;;;5.80;99.90;;;;;;4904872;29;20182;-75
2023/12/15 04:24:09;;;;;;;14.90;9.70;;;5.80;99.90;;;;;;4906180;29;20201;-72
2023/12/15 04:26:35;;;;;;;12.07;8.77;;;5.80;99.90;;;;;;4907273;29;20249;-74
2023/12/15 04:29:00;;;;;;;10.63;8.00;;;5.80;99.90;;;;;;4911925;29;20238;-74
2023/12/15 04:31:26;;;;;;;13.27;9.33;;;5.80;99.90;;;;;;4906897;29;20264;-74
2023/12/15 04:33:52;;;;;;;13.07;9.00;;;5.80;99.90;;;;;;4910271;29;20569;-73
2023/12/15 04:36:21;;;;;;;13.10;8.40;;;5.80;99.90;;;;;;4912339;29;20613;-73
2023/12/15 04:38:47;;;;;;;12.17;8.40;;;5.80;99.90;;;;;;4919585;29;20195;-74
2023/12/15 04:41:23;;;;;;;14.67;9.70;;;5.90;99.90;;;;;;4909942;29;20470;-73
2023/12/15 04:43:50;;;;;;;22.33;10.10;;;5.80;99.90;;;;;;4917247;29;20758;-75
2023/12/15 04:46:25;;;;;;;12.37;9.60;;;5.90;99.90;;;;;;4914149;29;20518;-76
2023/12/15 04:48:53;;;;;;;12.97;9.10;;;5.90;99.90;;;;;;4908539;29;20704;-72
2023/12/15 04:51:18;;;;;;;12.10;7.30;;;5.90;99.90;;;;;;4918697;29;20502;-75
2023/12/15 04:53:46;;;;;;;13.40;8.67;;;5.90;99.90;;;;;;4912342;29;20428;-74
2023/12/15 04:56:12;;;;;;;16.07;9.97;;;5.80;99.90;;;;;;4906909;29;20298;-74
2023/12/15 04:58:38;;;;;;;12.47;8.10;;;5.80;99.90;;;;;;4919156;29;20711;-74
2023/12/15 05:01:04;;;;;;;11.70;7.70;;;5.80;99.90;;;;;;4910800;29;20426;-75
2023/12/15 05:03:31;;;;;;;12.00;8.33;;;5.80;99.90;;;;;;4918012;29;20435;-74
2023/12/15 05:05:56;;;;;;;16.70;10.47;;;5.80;99.90;;;;;;4918072;29;20230;-74
2023/12/15 05:08:22;;;;;;;15.00;9.53;;;5.80;99.90;;;;;;4925145;29;20487;-74
2023/12/15 05:10:48;;;;;;;12.73;9.50;;;5.80;99.90;;;;;;4912573;29;20237;-73
2023/12/15 05:13:13;;;;;;;15.50;8.97;;;5.80;99.90;;;;;;4918675;29;20186;-75
2023/12/15 05:15:39;;;;;;;14.17;9.20;;;5.80;99.90;;;;;;4911242;29;20501;-75
2023/12/15 05:18:04;;;;;;;15.60;10.83;;;5.80;99.90;;;;;;4921244;29;20214;-75
2023/12/15 05:20:31;;;;;;;16.33;11.00;;;5.80;99.90;;;;;;4920089;29;20377;-73
2023/12/15 05:22:57;;;;;;;15.50;10.00;;;5.80;99.90;;;;;;4918270;29;20195;-76
2023/12/15 05:25:23;;;;;;;13.40;9.50;;;5.80;99.90;;;;;;4916749;29;20458;-74
2023/12/15 05:27:49;;;;;;;12.10;9.20;;;5.80;99.90;;;;;;4920326;29;20431;-75
2023/12/15 05:30:14;;;;;;;12.10;8.60;;;5.80;99.90;;;;;;4917366;29;20203;-74
2023/12/15 05:32:40;;;;;;;12.17;7.83;;;5.80;99.90;;;;;;4923185;29;20209;-74
2023/12/15 05:35:06;;;;;;;11.13;8.77;;;5.90;99.90;;;;;;4927495;29;20301;-73
2023/12/15 05:37:31;;;;;;;11.20;8.83;;;5.90;99.90;;;;;;4907623;29;20195;-74
2023/12/15 05:39:57;;;;;;;16.00;10.13;;;5.80;99.90;;;;;;4913969;29;20518;-74
2023/12/15 05:42:25;;;;;;;13.10;9.13;;;5.90;99.90;;;;;;4925075;29;20190;-79
2023/12/15 05:44:50;;;;;;;13.93;9.70;;;5.90;99.90;;;;;;4913516;29;20225;-75
2023/12/15 05:47:16;;;;;;;14.03;9.23;;;5.90;99.90;;;;;;4917705;29;20414;-74
2023/12/15 05:49:41;;;;;;;15.80;9.53;;;5.90;99.90;;;;;;4923170;29;20222;-75
2023/12/15 05:52:08;;;;;;;14.10;9.80;;;5.80;99.90;;;;;;4919264;29;20250;-74
2023/12/15 05:54:35;;;;;;;14.53;9.53;;;5.80;99.90;;;;;;4897629;29;20175;-75
2023/12/15 05:57:01;;;;;;;14.90;9.60;;;5.80;99.90;;;;;;4918530;29;20476;-77
2023/12/15 05:59:26;;;;;;;15.70;9.60;;;5.80;99.90;;;;;;4915504;29;20431;-75
2023/12/15 06:01:52;;;;;;;12.93;9.77;;;5.90;99.90;;;;;;4925299;29;20253;-75
2023/12/15 06:04:17;;;;;;;13.67;9.70;;;5.90;99.90;;;;;;4916199;29;20583;-75
2023/12/15 06:06:43;;;;;;;13.07;9.23;;;5.90;99.90;;;;;;4920058;29;20415;-77
2023/12/15 06:09:09;;;;;;;10.17;7.80;;;5.90;99.90;;;;;;4914703;29;20542;-75
2023/12/15 06:11:40;;;;;;;11.83;7.73;;;5.90;99.90;;;;;;4926071;29;20171;-75
2023/12/15 06:14:07;;;;;;;15.70;8.87;;;5.90;99.90;;;;;;4904244;29;20198;-77
2023/12/15 06:16:33;;;;;;;13.73;9.47;;;5.90;99.90;;;;;;4921967;29;20453;-74
2023/12/15 06:18:58;;;;;;;13.00;9.70;;;5.90;99.90;;;;;;4922786;29;20427;-74
2023/12/15 06:21:26;;;;;;;15.87;10.53;;;5.90;99.90;;;;;;4917553;29;20515;-77
2023/12/15 06:23:52;;;;;;;14.23;9.60;;;5.90;99.90;;;;;;4922300;29;20204;-76
2023/12/15 06:26:23;;;;;;;14.47;8.37;;;6.00;99.90;;;;;;4921849;29;20452;-76
2023/12/15 06:28:49;;;;;;;14.13;8.33;;;6.00;99.90;;;;;;4924160;29;20879;-76
2023/12/15 06:31:16;;;;;;;13.20;9.17;;;6.00;99.90;;;;;;4905073;29;20423;-78
2023/12/15 06:33:42;;;;;;;10.87;7.33;;;6.00;99.90;;;;;;4922800;29;20423;-76
2023/12/15 06:36:11;;;;;;;10.03;6.87;;;6.00;99.90;;;;;;4917079;29;20455;-79
2023/12/15 06:38:39;;;;;;;10.60;7.20;;;6.10;99.90;;;;;;4917742;29;20286;-77
2023/12/15 06:41:05;;;;;;;11.43;7.13;;;6.10;99.90;;;;;;4911295;29;20439;-77
2023/12/15 06:43:31;;;;;;;10.60;7.20;;;6.10;99.90;;;;;;4921185;29;20451;-77
2023/12/15 06:45:58;;;;;;;25.27;14.00;;;6.20;99.90;;;;;;4920901;29;20503;-76
2023/12/15 06:48:24;;;;;;;15.87;10.77;;;6.20;99.90;;;;;;4924051;29;20438;-76
2023/12/15 06:50:49;;;;;;;12.73;9.00;;;6.20;99.90;;;;;;4925172;29;20525;-76
2023/12/15 06:53:17;;;;;;;13.57;9.47;;;6.20;99.90;;;;;;4904325;29;20181;-78
2023/12/15 06:55:43;;;;;;;12.53;7.90;;;6.20;99.90;;;;;;4926706;29;20206;-77
2023/12/15 06:58:09;;;;;;;12.00;7.90;;;6.20;99.90;;;;;;4920231;29;20427;-77
2023/12/15 07:00:37;;;;;;;11.33;8.10;;;6.20;99.90;;;;;;4906791;29;20430;-78
2023/12/15 07:03:04;;;;;;;13.60;8.63;;;6.20;99.90;;;;;;4936983;29;20190;-76
2023/12/15 07:05:29;;;;;;;10.40;7.00;;;6.20;99.90;;;;;;4917705;29;20522;-76
2023/12/15 07:07:55;;;;;;;10.10;6.80;;;6.20;99.90;;;;;;4905390;29;20238;-76
2023/12/15 07:10:20;;;;;;;9.07;6.53;;;6.30;99.90;;;;;;4929827;29;20226;-75
2023/12/15 07:12:46;;;;;;;10.30;6.77;;;6.30;99.90;;;;;;4916641;29;20191;-78
2023/12/15 07:15:12;;;;;;;9.60;6.40;;;6.30;99.90;;;;;;4913203;29;20612;-75
2023/12/15 07:17:38;;;;;;;7.00;5.87;;;6.40;99.90;;;;;;4918987;29;20285;-76
2023/12/15 07:20:04;;;;;;;7.90;5.50;;;6.40;99.90;;;;;;4920926;29;20239;-76
2023/12/15 07:22:30;;;;;;;9.70;6.60;;;6.40;99.90;;;;;;4919572;29;20190;-77
2023/12/15 07:24:56;;;;;;;8.73;7.50;;;6.40;99.90;;;;;;4914983;29;20438;-74
2023/12/15 07:27:22;;;;;;;9.57;6.77;;;6.50;99.90;;;;;;4889113;29;20290;-76
2023/12/15 07:29:49;;;;;;;10.97;8.50;;;6.50;99.90;;;;;;4926250;29;20479;-80
2023/12/15 07:32:15;;;;;;;13.00;7.97;;;6.60;99.90;;;;;;4912247;29;20195;-77
2023/12/15 07:34:41;;;;;;;18.70;8.70;;;6.60;99.90;;;;;;4936563;29;20466;-78
2023/12/15 07:37:07;;;;;;;11.90;8.90;;;6.60;99.90;;;;;;4919465;29;20464;-77
2023/12/15 07:39:33;;;;;;;13.27;10.00;;;6.70;99.90;;;;;;4923168;29;20199;-77
2023/12/15 07:41:59;;;;;;;17.07;9.40;;;6.70;99.90;;;;;;4924732;29;20418;-80
2023/12/15 07:44:25;;;;;;;11.27;8.17;;;6.70;99.90;;;;;;4918909;29;20415;-78
2023/12/15 07:47:11;;;;;;;13.27;8.60;;;6.70;99.90;;;;;;4933227;28;20222;-80
2023/12/15 07:49:45;;;;;;;11.90;8.40;;;6.80;99.90;;;;;;4926681;29;20502;-77
2023/12/15 07:52:12;;;;;;;14.10;9.77;;;6.80;99.90;;;;;;4933404;29;20422;-80
2023/12/15 07:54:50;;;;;;;10.20;7.77;;;6.80;99.90;;;;;;4928220;29;20404;-82
2023/12/15 07:57:16;;;;;;;12.63;7.90;;;6.80;99.90;;;;;;4924330;29;20513;-80
2023/12/15 07:59:42;;;;;;;15.13;9.43;;;6.80;99.90;;;;;;4933993;29;20431;-81
2023/12/15 08:02:09;;;;;;;11.30;7.23;;;6.80;99.90;;;;;;4925345;29;20223;-79
2023/12/15 08:04:34;;;;;;;11.20;7.80;;;6.80;99.90;;;;;;4915855;29;20446;-79
2023/12/15 08:07:03;;;;;;;8.67;6.80;;;6.90;99.90;;;;;;4940184;29;20295;-80
2023/12/15 08:09:29;;;;;;;10.50;7.57;;;6.90;99.90;;;;;;4916774;29;20462;-77
2023/12/15 08:11:54;;;;;;;12.50;8.10;;;6.90;99.90;;;;;;4931457;29;20219;-78
2023/12/15 08:14:24;;;;;;;12.30;8.13;;;7.00;99.90;;;;;;4938800;29;20193;-79
2023/12/15 08:16:49;;;;;;;11.70;8.83;;;7.00;99.90;;;;;;4933363;29;20226;-80
2023/12/15 08:19:17;;;;;;;9.43;7.67;;;7.00;99.90;;;;;;4923534;29;20418;-80
2023/12/15 08:21:43;;;;;;;9.33;7.10;;;7.10;99.90;;;;;;4916118;29;20237;-80
2023/12/15 08:24:16;;;;;;;12.50;8.73;;;7.10;99.90;;;;;;4909455;29;20418;-78
2023/12/15 08:26:42;;;;;;;12.00;8.60;;;7.10;99.90;;;;;;4940065;28;20508;-81
2023/12/15 08:29:08;;;;;;;11.57;8.40;;;7.20;99.90;;;;;;4896144;29;20285;-80
2023/12/15 08:31:35;;;;;;;11.13;8.40;;;7.20;99.90;;;;;;4938976;28;20419;-78
2023/12/15 08:34:04;;;;;;;15.00;8.83;;;7.30;99.90;;;;;;4939329;28;20394;-81
2023/12/15 08:36:34;;;;;;;15.00;9.20;;;7.30;99.90;;;;;;4937888;29;20483;-80
2023/12/15 08:39:01;;;;;;;13.27;9.17;;;7.30;99.90;;;;;;4910775;29;20439;-77
2023/12/15 08:41:48;;;;;;;12.93;9.63;;;7.40;99.90;;;;;;4888410;29;20433;-78
2023/12/15 08:44:31;;;;;;;17.83;11.93;;;7.40;99.90;;;;;;4906503;29;20435;-81
2023/12/15 08:46:57;;;;;;;21.00;13.60;;;7.40;99.90;;;;;;4885546;29;20440;-80
2023/12/15 08:49:23;;;;;;;19.10;13.03;;;7.40;99.90;;;;;;4894330;29;20509;-78
2023/12/15 08:52:08;;;;;;;23.47;12.67;;;7.50;99.90;;;;;;4881775;29;20266;-81
2023/12/15 08:54:35;;;;;;;24.43;16.13;;;7.50;99.90;;;;;;4897387;29;20279;-79
2023/12/15 08:57:01;;;;;;;24.93;17.03;;;7.50;99.90;;;;;;4868946;29;20481;-78
2023/12/15 08:59:27;;;;;;;23.17;14.77;;;7.50;99.90;;;;;;4886702;29;20435;-77
2023/12/15 09:01:58;;;;;;;26.17;17.27;;;7.60;99.90;;;;;;4830620;29;20175;-80
2023/12/15 09:04:26;;;;;;;26.50;15.97;;;7.60;99.90;;;;;;4877849;29;20449;-79
2023/12/15 09:06:52;;;;;;;25.20;17.53;;;7.60;99.90;;;;;;4868667;29;20513;-78
2023/12/15 09:09:39;;;;;;;40.20;21.10;;;7.60;99.90;;;;;;4861761;29;20538;-75
2023/12/15 09:12:08;;;;;;;30.23;18.50;;;7.70;99.90;;;;;;4863081;29;20437;-81
2023/12/15 09:14:39;;;;;;;33.23;20.00;;;7.70;99.90;;;;;;4842791;29;20437;-78
2023/12/15 09:17:05;;;;;;;25.27;16.33;;;7.70;99.90;;;;;;4875562;29;20444;-77
2023/12/15 09:19:32;;;;;;;30.73;18.60;;;7.70;99.90;;;;;;4917481;29;20498;-79
2023/12/15 09:22:05;;;;;;;26.67;16.17;;;7.70;99.90;;;;;;4889431;29;20236;-79
2023/12/15 09:24:35;;;;;;;23.80;17.13;;;7.70;99.90;;;;;;4898311;29;20476;-80
2023/12/15 09:27:01;;;;;;;32.40;19.47;;;7.80;99.90;;;;;;4885150;29;20452;-77
2023/12/15 09:29:27;;;;;;;30.30;19.40;;;7.80;99.90;;;;;;4910582;29;20505;-77
2023/12/15 09:31:52;;;;;;;28.17;18.23;;;7.80;99.90;;;;;;4917167;29;20223;-78
2023/12/15 09:34:41;;;;;;;29.13;18.53;;;7.80;99.90;;;;;;4910016;29;20278;-78
2023/12/15 09:37:17;;;;;;;27.10;16.63;;;7.90;99.90;;;;;;4928129;29;20205;-79
2023/12/15 09:39:43;;;;;;;23.67;15.27;;;7.90;99.90;;;;;;4896823;29;20433;-78
2023/12/15 09:42:09;;;;;;;27.07;15.57;;;8.00;99.90;;;;;;4907955;29;20696;-80
2023/12/15 09:44:37;;;;;;;19.80;13.53;;;8.10;99.90;;;;;;4907920;29;20435;-79
2023/12/15 09:47:04;;;;;;;18.70;13.00;;;8.10;99.90;;;;;;4899270;29;20427;-76
2023/12/15 09:49:32;;;;;;;28.53;19.10;;;8.10;99.90;;;;;;4925800;29;20532;-80
2023/12/15 09:52:02;;;;;;;28.47;18.40;;;8.20;99.90;;;;;;4892454;29;20431;-80
2023/12/15 09:54:28;;;;;;;24.63;17.07;;;8.10;99.90;;;;;;4888267;29;20447;-79
2023/12/15 09:56:55;;;;;;;32.50;22.13;;;8.10;99.90;;;;;;4923339;29;20422;-77
2023/12/15 09:59:45;;;;;;;35.17;19.80;;;8.20;99.90;;;;;;4922849;29;20421;-81
2023/12/15 10:02:20;;;;;;;31.37;20.90;;;8.20;99.90;;;;;;4913180;29;20480;-80
2023/12/15 10:04:48;;;;;;;32.63;20.63;;;8.20;99.90;;;;;;4887645;29;20447;-79
2023/12/15 10:07:22;;;;;;;29.07;19.27;;;8.30;99.90;;;;;;4908491;29;20466;-79
2023/12/15 10:09:53;;;;;;;31.10;21.07;;;8.30;99.90;;;;;;4920130;29;20560;-81
2023/12/15 10:12:30;;;;;;;31.50;21.07;;;8.40;99.90;;;;;;4912117;29;20427;-78
2023/12/15 10:14:58;;;;;;;31.73;19.60;;;8.40;99.90;;;;;;4920039;29;20462;-80
2023/12/15 10:17:47;;;;;;;36.83;22.03;;;8.40;99.90;;;;;;4923714;29;20435;-81
2023/12/15 10:21:04;;;;;;;32.97;21.33;;;8.50;99.90;;;;;;4941637;29;20597;-81
2023/12/15 10:23:31;;;;;;;28.97;19.27;;;8.50;99.90;;;;;;4928973;29;20424;-80
2023/12/15 10:26:07;;;;;;;28.57;18.00;;;8.60;99.90;;;;;;4912536;29;20438;-82
2023/12/15 10:28:40;;;;;;;33.93;21.40;;;8.60;99.90;;;;;;4908509;29;20440;-79
2023/12/15 10:31:16;;;;;;;31.07;20.13;;;8.70;99.90;;;;;;4920351;29;20427;-80
2023/12/15 10:34:26;;;;;;;34.97;22.33;;;8.70;99.90;;;;;;4933312;29;20422;-82
2023/12/15 10:37:22;;;;;;;36.67;19.77;;;8.70;99.90;;;;;;5252478;23;20332;-78
2023/12/15 10:39:48;;;;;;;32.87;21.00;;;8.70;99.90;;;;;;4936787;29;20451;-80
2023/12/15 10:42:17;;;;;;;36.47;22.70;;;8.70;99.90;;;;;;4954815;28;20449;-80
2023/12/15 10:44:54;;;;;;;27.80;18.23;;;8.70;99.90;;;;;;4944493;28;20457;-80
2023/12/15 10:47:42;;;;;;;30.63;19.00;;;8.70;99.90;;;;;;4946224;28;20424;-81
2023/12/15 10:50:09;;;;;;;26.87;18.20;;;8.70;99.90;;;;;;4924009;29;20489;-80
2023/12/15 10:52:42;;;;;;;31.93;19.90;;;8.70;99.90;;;;;;4939790;29;20453;-80
2023/12/15 10:55:11;;;;;;;36.57;21.27;;;8.70;99.90;;;;;;4923196;29;20454;-80
2023/12/15 10:57:37;;;;;;;34.80;19.33;;;8.70;99.90;;;;;;4923800;29;20427;-79
2023/12/15 11:00:05;;;;;;;30.20;18.40;;;8.70;99.90;;;;;;4918862;29;20447;-79
2023/12/15 11:02:32;;;;;;;25.97;16.97;;;8.70;99.90;;;;;;4906153;29;20167;-79
2023/12/15 11:05:01;;;;;;;23.70;15.80;;;8.70;99.90;;;;;;4923101;29;20457;-80
2023/12/15 11:07:36;;;;;;;28.43;17.30;;;8.80;99.90;;;;;;4900704;29;20436;-80
2023/12/15 11:10:03;;;;;;;35.00;19.93;;;8.90;99.90;;;;;;4900839;29;20488;-80
2023/12/15 11:12:42;;;;;;;26.93;17.70;;;9.00;99.90;;;;;;4868476;29;20461;-81
2023/12/15 11:17:47;;;;;;;24.73;17.20;;;9.10;99.90;;;;;;5436848;23;20448;-81
2023/12/15 11:20:56;;;;;;;28.83;17.47;;;9.10;99.90;;;;;;4935329;29;20431;-80
2023/12/15 11:23:22;;;;;;;28.00;18.73;;;9.20;99.90;;;;;;4844663;29;20439;-80
2023/12/15 11:26:03;;;;;;;33.93;19.20;;;9.20;99.90;;;;;;4801422;29;20442;-81
2023/12/15 11:28:48;;;;;;;30.57;18.07;;;9.20;99.90;;;;;;4836873;29;20439;-81
2023/12/15 11:31:24;;;;;;;26.57;17.60;;;9.30;99.90;;;;;;4816446;29;20549;-81
2023/12/15 11:33:50;;;;;;;32.43;19.93;;;9.30;99.90;;;;;;4817197;29;20430;-82
2023/12/15 11:36:16;;;;;;;29.20;16.93;;;9.30;99.90;;;;;;4830273;29;20472;-79
2023/12/15 11:38:50;;;;;;;36.10;20.70;;;9.40;99.90;;;;;;4825258;29;20461;-80
2023/12/15 11:41:39;;;;;;;41.30;22.10;;;9.30;99.90;;;;;;4828220;29;20446;-81
2023/12/15 11:44:10;;;;;;;32.63;19.50;;;9.30;99.90;;;;;;4816786;29;20462;-80
2023/12/15 11:46:36;;;;;;;36.07;20.43;;;9.20;99.90;;;;;;4794765;29;20469;-80
2023/12/15 11:49:03;;;;;;;31.13;18.37;;;9.10;99.90;;;;;;4794298;29;20507;-79
2023/12/15 11:51:43;;;;;;;29.43;16.97;;;9.10;99.90;;;;;;4783645;30;20444;-79
2023/12/15 11:54:16;;;;;;;33.60;20.83;;;9.10;99.90;;;;;;4815009;29;20474;-79
2023/12/15 11:56:43;;;;;;;36.50;19.67;;;9.10;99.90;;;;;;5438310;23;20252;-81
2023/12/15 11:59:11;;;;;;;33.30;19.27;;;9.20;99.90;;;;;;4942984;29;20425;-80
2023/12/15 12:01:39;;;;;;;30.17;19.13;;;9.20;99.90;;;;;;4943720;28;20441;-80
2023/12/15 12:04:24;;;;;;;37.80;19.47;;;9.10;99.90;;;;;;4943855;29;20445;-82
2023/12/15 12:06:55;;;;;;;37.03;19.63;;;9.10;99.90;;;;;;4928284;28;20437;-81
2023/12/15 12:09:52;;;;;;;27.27;18.53;;;9.10;99.90;;;;;;4959081;28;20540;-81
2023/12/15 12:12:31;;;;;;;30.17;18.23;;;9.20;99.90;;;;;;4940977;28;20494;-82
2023/12/15 12:15:09;;;;;;;38.43;20.70;;;9.20;99.90;;;;;;4903467;29;20464;-79
2023/12/15 12:17:38;;;;;;;32.67;20.10;;;9.10;99.90;;;;;;4897868;29;20415;-80
2023/12/15 12:20:09;;;;;;;28.20;15.87;;;9.20;99.90;;;;;;4941616;29;20414;-82
2023/12/15 12:22:41;;;;;;;32.63;20.43;;;9.20;99.90;;;;;;4931672;29;20490;-80
2023/12/15 12:25:22;;;;;;;37.23;22.00;;;9.30;99.90;;;;;;4922825;29;20453;-80
2023/12/15 12:27:52;;;;;;;42.33;19.93;;;9.30;99.90;;;;;;4924705;29;20429;-81
2023/12/15 12:31:03;;;;;;;31.17;19.17;;;9.20;99.90;;;;;;4921443;28;20476;-81
2023/12/15 12:33:33;;;;;;;26.20;16.07;;;9.30;99.90;;;;;;4956262;28;20441;-81
2023/12/15 12:38:47;;;;;;;33.00;20.00;;;9.40;99.90;;;;;;4680047;26;20488;-80
2023/12/15 12:41:37;;;;;;;30.00;18.43;;;9.40;99.90;;;;;;4961301;28;20421;-80
2023/12/15 12:45:03;;;;;;;34.67;20.27;;;9.40;99.90;;;;;;4979580;28;20170;-81
2023/12/15 12:53:20;;;;;;;27.17;17.07;;;9.50;99.90;;;;;;5032060;23;20610;-81
2023/12/15 12:55:47;;;;;;;25.17;16.03;;;9.60;99.90;;;;;;4948410;29;20464;-79
2023/12/15 12:58:13;;;;;;;30.60;16.33;;;9.70;99.90;;;;;;4961370;29;20426;-81
2023/12/15 13:00:39;;;;;;;23.20;14.03;;;9.80;99.90;;;;;;4980977;28;20401;-80